Time;durP1;ratioP1;P1;durP2;ratioP2;P2;SDS_P1;SDS_P2;PMS_P1;PMS_P2;Temp;Humidity;BMP_temperature;BMP_pressure;BME280_temperature;BME280_humidity;BME280_pressure;Samples;Min_cycle;Max_cycle;Signal;HPM_P1;HPM_P2
2022/12/09 00:00:50;;;;;;;6.22;4.70;;;;;;;21.86;44.36;94783.50;4989349;28;20052;-63
2022/12/09 00:03:16;;;;;;;6.40;4.53;;;;;;;21.17;44.25;94675.50;4988899;28;21771;-62
2022/12/09 00:05:42;;;;;;;7.35;5.47;;;;;;;21.84;44.41;94777.81;5000556;28;20182;-63
2022/12/09 00:08:07;;;;;;;7.53;5.00;;;;;;;21.78;44.40;94758.09;5000628;28;20050;-62
2022/12/09 00:10:33;;;;;;;6.78;4.57;;;;;;;21.78;44.39;94779.84;5008055;28;20052;-65
2022/12/09 00:12:58;;;;;;;6.30;4.70;;;;;;;21.67;44.31;94771.75;4990721;28;20048;-64
2022/12/09 00:15:24;;;;;;;7.93;5.05;;;;;;;21.80;44.58;94771.94;5008389;28;20072;-63
2022/12/09 00:17:49;;;;;;;7.30;4.65;;;;;;;21.80;44.66;94788.25;5008022;28;20056;-62
2022/12/09 00:20:15;;;;;;;6.53;4.60;;;;;;;20.78;44.23;94641.66;4997619;28;20052;-63
2022/12/09 00:22:41;;;;;;;6.28;4.90;;;;;;;21.66;44.44;94762.16;5002494;28;20033;-63
2022/12/09 00:25:06;;;;;;;6.70;4.55;;;;;;;21.54;44.50;94747.88;4991681;28;21150;-63
2022/12/09 00:27:32;;;;;;;6.57;4.95;;;;;;;21.14;44.45;94696.25;5011144;28;20048;-62
2022/12/09 00:29:57;;;;;;;5.72;4.40;;;;;;;21.19;44.36;94719.91;5009162;28;20056;-65
2022/12/09 00:32:23;;;;;;;5.93;4.55;;;;;;;21.75;44.48;94797.16;5007709;28;20557;-63
2022/12/09 00:34:48;;;;;;;6.72;4.78;;;;;;;21.73;44.63;94788.78;5007906;28;20056;-63
2022/12/09 00:37:14;;;;;;;7.18;4.93;;;;;;;21.39;44.53;94733.13;5008547;28;20171;-64
2022/12/09 00:39:39;;;;;;;6.18;4.75;;;;;;;21.72;44.62;94787.28;5007977;28;20060;-64
2022/12/09 00:42:05;;;;;;;7.03;4.68;;;;;;;21.73;44.44;94800.38;5008011;28;20053;-62
2022/12/09 00:44:30;;;;;;;7.20;5.05;;;;;;;21.71;44.60;94791.25;4990255;28;20138;-63
2022/12/09 00:46:56;;;;;;;7.82;5.43;;;;;;;21.72;44.51;94809.03;5009673;28;20729;-64
2022/12/09 00:49:21;;;;;;;6.72;4.68;;;;;;;21.70;44.48;94795.22;5010830;28;20134;-63
2022/12/09 00:51:47;;;;;;;6.45;4.75;;;;;;;21.56;44.58;94774.56;5009038;28;20143;-65
2022/12/09 00:54:13;;;;;;;6.60;4.95;;;;;;;21.61;44.50;94781.94;4992663;28;20060;-63
2022/12/09 00:56:38;;;;;;;5.63;4.53;;;;;;;21.67;44.46;94790.78;4992391;28;20048;-62
2022/12/09 00:59:04;;;;;;;6.47;5.07;;;;;;;21.66;44.68;94800.19;5010225;28;20565;-63
2022/12/09 01:01:29;;;;;;;6.40;5.00;;;;;;;21.65;44.66;94782.41;4998577;28;20041;-63
2022/12/09 01:03:55;;;;;;;6.72;4.47;;;;;;;21.51;44.63;94767.19;4972556;28;20132;-62
2022/12/09 01:06:22;;;;;;;5.70;4.50;;;;;;;21.61;44.67;94787.38;4988438;28;20108;-62
2022/12/09 01:08:48;;;;;;;6.55;4.47;;;;;;;21.59;44.57;94770.84;4989529;28;20114;-64
2022/12/09 01:11:21;;;;;;;6.05;4.50;;;;;;;21.54;44.58;94750.59;5007146;28;20150;-63
2022/12/09 01:13:47;;;;;;;7.50;4.88;;;;;;;20.87;44.64;94649.50;5007850;28;20037;-64
2022/12/09 01:16:14;;;;;;;7.45;5.20;;;;;;;21.51;44.68;94745.44;4993687;28;20729;-62
2022/12/09 01:18:40;;;;;;;6.68;5.00;;;;;;;21.60;44.55;94764.91;4999797;28;20077;-64
2022/12/09 01:21:05;;;;;;;5.97;4.60;;;;;;;21.60;44.70;94750.59;5003646;28;20057;-64
2022/12/09 01:23:31;;;;;;;7.50;4.95;;;;;;;21.43;44.52;94760.75;5010229;28;20084;-63
2022/12/09 01:25:56;;;;;;;6.47;4.75;;;;;;;21.62;44.61;94772.53;5009481;28;21669;-63
2022/12/09 01:28:22;;;;;;;5.80;4.22;;;;;;;21.61;44.61;94781.94;5009208;28;20033;-62
2022/12/09 01:30:47;;;;;;;6.25;4.60;;;;;;;20.85;44.44;94673.69;5009149;28;20072;-62
2022/12/09 01:33:13;;;;;;;5.13;4.40;;;;;;;21.52;44.69;94758.53;5008972;28;20158;-62
2022/12/09 01:35:40;;;;;;;6.90;4.38;;;;;;;20.12;44.53;94568.69;5009144;28;20048;-63
2022/12/09 01:38:05;;;;;;;5.47;4.28;;;;;;;21.36;44.61;94749.69;5009022;28;20052;-63
2022/12/09 01:40:31;;;;;;;6.85;4.68;;;;;;;21.59;44.54;94773.56;5012492;28;20028;-63
2022/12/09 01:42:56;;;;;;;6.35;4.95;;;;;;;21.31;44.64;94737.63;4990517;28;20057;-63
2022/12/09 01:45:22;;;;;;;6.72;4.60;;;;;;;21.57;44.59;94771.34;5009184;28;20079;-63
2022/12/09 01:47:53;;;;;;;6.38;4.65;;;;;;;21.55;44.83;94783.94;5009301;28;20056;-62
2022/12/09 01:50:18;;;;;;;5.75;4.40;;;;;;;20.94;44.51;94671.44;4973413;28;20873;-62
2022/12/09 01:52:44;;;;;;;6.40;4.63;;;;;;;21.54;44.63;94777.78;5008823;28;20072;-62
2022/12/09 01:55:10;;;;;;;6.05;4.75;;;;;;;21.55;44.68;94778.50;4991618;28;20060;-62
2022/12/09 01:57:35;;;;;;;6.13;4.40;;;;;;;21.45;44.75;94761.78;5008952;28;20059;-62
2022/12/09 02:00:01;;;;;;;5.03;4.43;;;;;;;21.54;44.51;94780.50;4985641;28;20061;-63
2022/12/09 02:02:27;;;;;;;5.47;4.30;;;;;;;21.48;44.57;94757.31;4985078;28;20271;-63
2022/12/09 02:04:52;;;;;;;5.28;4.25;;;;;;;21.38;44.57;94761.53;4991478;28;20795;-64
2022/12/09 02:07:18;;;;;;;6.05;4.50;;;;;;;21.32;44.65;94744.53;4991873;28;20185;-64
2022/12/09 02:09:43;;;;;;;6.50;4.40;;;;;;;21.28;44.61;94722.31;5001884;28;20073;-63
2022/12/09 02:12:16;;;;;;;5.78;4.55;;;;;;;21.50;44.70;94760.25;4991057;28;20053;-63
2022/12/09 02:15:00;;;;;;;5.70;4.40;;;;;;;21.18;44.54;94717.69;4987500;28;20490;-63
2022/12/09 02:17:28;;;;;;;5.85;4.45;;;;;;;20.99;44.75;94676.81;4998909;28;20058;-63
2022/12/09 02:20:18;;;;;;;5.65;4.50;;;;;;;21.49;44.57;94748.66;4983127;28;20033;-64
2022/12/09 02:22:49;;;;;;;6.22;4.50;;;;;;;21.35;44.65;94738.09;4988705;28;20068;-62
2022/12/09 02:25:27;;;;;;;6.88;4.80;;;;;;;20.80;44.51;94652.75;4982446;28;20033;-63
2022/12/09 02:28:01;;;;;;;6.32;4.40;;;;;;;21.48;44.65;94751.88;4990539;28;21211;-62
2022/12/09 02:30:34;;;;;;;5.72;4.50;;;;;;;21.24;44.48;94716.44;4990109;28;20049;-63
2022/12/09 02:33:23;;;;;;;4.80;4.20;;;;;;;21.46;44.65;94759.78;4989266;28;20458;-63
2022/12/09 02:36:02;;;;;;;5.35;4.30;;;;;;;21.48;44.73;94758.06;4985592;28;20118;-63
2022/12/09 02:38:30;;;;;;;6.27;4.40;;;;;;;21.45;44.53;94744.72;4994381;28;20168;-62
2022/12/09 02:41:15;;;;;;;6.13;4.40;;;;;;;21.47;44.68;94744.97;4992521;28;20155;-62
2022/12/09 02:43:44;;;;;;;5.85;4.22;;;;;;;21.45;44.49;94764.50;4989639;28;20044;-62
2022/12/09 02:46:09;;;;;;;6.22;4.82;;;;;;;21.45;44.45;94769.16;4999341;28;20686;-63
2022/12/09 02:48:37;;;;;;;5.88;4.63;;;;;;;21.39;44.73;94760.31;4989242;28;20041;-62
2022/12/09 02:51:05;;;;;;;5.50;4.00;;;;;;;21.41;44.59;94774.13;4987639;28;20061;-62
2022/12/09 02:53:30;;;;;;;5.43;4.40;;;;;;;21.27;44.65;94764.31;4975908;28;22056;-62
2022/12/09 02:55:56;;;;;;;5.65;4.28;;;;;;;20.88;44.67;94700.56;4987800;28;20054;-62
2022/12/09 02:58:21;;;;;;;5.90;4.80;;;;;;;21.44;44.75;94767.69;4984082;28;20685;-65
2022/12/09 03:00:46;;;;;;;5.78;4.53;;;;;;;21.42;44.80;94778.31;4988584;28;20836;-63
2022/12/09 03:03:15;;;;;;;5.65;4.22;;;;;;;21.41;44.58;94784.97;4989432;28;20604;-63
2022/12/09 03:05:59;;;;;;;6.47;4.55;;;;;;;21.42;44.89;94770.91;4971442;28;20148;-63
2022/12/09 03:08:48;;;;;;;6.00;4.55;;;;;;;21.42;44.65;94778.31;4989734;28;21634;-62
2022/12/09 03:11:18;;;;;;;6.25;4.43;;;;;;;20.09;44.48;94583.22;4989981;28;20046;-62
2022/12/09 03:14:02;;;;;;;5.90;4.35;;;;;;;21.39;44.88;94782.03;4989628;28;20042;-62
2022/12/09 03:16:30;;;;;;;5.65;4.60;;;;;;;21.19;44.73;94774.19;5009912;28;20123;-63
2022/12/09 03:19:00;;;;;;;5.53;4.13;;;;;;;21.20;44.57;94748.53;5010316;28;20064;-62
2022/12/09 03:21:26;;;;;;;5.53;4.70;;;;;;;21.34;44.61;94758.34;4985287;28;20044;-62
2022/12/09 03:23:52;;;;;;;5.50;3.97;;;;;;;21.37;44.37;94762.75;4989760;28;20068;-64
2022/12/09 03:26:17;;;;;;;5.80;4.20;;;;;;;21.17;44.81;94744.09;4975507;28;20098;-63
2022/12/09 03:28:46;;;;;;;5.20;4.43;;;;;;;21.40;44.68;94791.63;4984684;28;20029;-62
2022/12/09 03:31:17;;;;;;;6.07;4.25;;;;;;;21.39;44.63;94764.97;4985937;28;20041;-63
2022/12/09 03:33:43;;;;;;;5.70;4.28;;;;;;;21.36;44.74;94777.59;4993401;28;20072;-62
2022/12/09 03:36:09;;;;;;;6.07;4.60;;;;;;;21.30;44.59;94762.56;4967677;28;20049;-63
2022/12/09 03:38:36;;;;;;;6.10;4.28;;;;;;;21.38;44.47;94747.94;4980177;28;20158;-63
2022/12/09 03:41:28;;;;;;;6.68;4.68;;;;;;;21.27;44.73;94764.31;5006391;28;21285;-63
2022/12/09 03:43:58;;;;;;;5.82;4.20;;;;;;;21.21;44.55;94722.13;4985152;28;20041;-63
2022/12/09 03:46:23;;;;;;;5.35;4.57;;;;;;;21.34;44.70;94763.75;4990402;28;20737;-62
2022/12/09 03:48:49;;;;;;;5.38;4.18;;;;;;;21.29;44.75;94745.53;5007448;28;20808;-63
2022/12/09 03:51:22;;;;;;;5.97;4.00;;;;;;;21.11;44.50;94710.81;5007936;28;20057;-63
2022/12/09 03:53:52;;;;;;;5.50;4.43;;;;;;;21.35;44.76;94751.69;5003126;28;20080;-62
2022/12/09 03:56:22;;;;;;;5.72;4.13;;;;;;;21.33;44.16;94754.16;5008892;28;20049;-64
2022/12/09 03:58:48;;;;;;;5.55;4.30;;;;;;;21.11;44.55;94718.97;4991361;28;20045;-62
2022/12/09 04:01:14;;;;;;;5.53;4.13;;;;;;;21.32;44.44;94763.53;4992059;28;20141;-63
2022/12/09 04:03:42;;;;;;;5.00;3.97;;;;;;;20.68;44.66;94675.75;5010640;28;20909;-63
2022/12/09 04:06:08;;;;;;;5.45;4.18;;;;;;;21.24;44.54;94759.13;4999515;28;20049;-62
2022/12/09 04:08:33;;;;;;;5.97;4.18;;;;;;;21.30;44.65;94757.88;5010637;28;20072;-63
2022/12/09 04:10:59;;;;;;;6.25;4.38;;;;;;;21.06;44.52;94738.75;5009805;28;20044;-62
2022/12/09 04:13:25;;;;;;;5.40;4.28;;;;;;;21.29;44.72;94761.81;4990884;28;20726;-63
2022/12/09 04:15:50;;;;;;;5.93;4.35;;;;;;;21.23;44.61;94752.97;5008351;28;20053;-62
2022/12/09 04:18:15;;;;;;;4.97;4.00;;;;;;;19.90;44.42;94553.72;4988919;28;20045;-63
2022/12/09 04:20:41;;;;;;;5.95;4.32;;;;;;;21.21;44.58;94746.56;5000176;28;20144;-63
2022/12/09 04:23:06;;;;;;;5.30;4.20;;;;;;;21.25;44.53;94758.63;4988533;28;20248;-63
2022/12/09 04:25:32;;;;;;;5.07;3.90;;;;;;;21.29;44.60;94778.13;5006472;28;20045;-64
2022/12/09 04:27:57;;;;;;;6.15;3.97;;;;;;;21.27;44.61;94766.28;5006564;28;20447;-63
2022/12/09 04:30:23;;;;;;;5.05;4.07;;;;;;;20.65;44.59;94682.84;4988536;28;20514;-63
2022/12/09 04:32:48;;;;;;;5.15;3.75;;;;;;;21.21;44.55;94760.88;5006290;28;20053;-63
2022/12/09 04:35:14;;;;;;;5.82;3.95;;;;;;;21.29;44.62;94772.69;4976069;28;20084;-62
2022/12/09 04:37:39;;;;;;;5.57;4.00;;;;;;;21.27;44.86;94777.13;5006061;28;21789;-63
2022/12/09 04:40:06;;;;;;;5.78;4.85;;;;;;;21.28;44.67;94782.06;5006330;28;20782;-63
2022/12/09 04:42:31;;;;;;;5.22;3.90;;;;;;;21.23;44.60;94763.84;5004962;28;20806;-63
2022/12/09 04:44:57;;;;;;;5.20;3.95;;;;;;;20.87;44.35;94709.94;4992529;28;20080;-63
2022/12/09 04:47:22;;;;;;;5.60;4.40;;;;;;;21.23;44.68;94763.09;5004754;28;20056;-62
2022/12/09 04:49:47;;;;;;;5.90;4.10;;;;;;;21.26;44.61;94762.81;5003609;28;20043;-62
2022/12/09 04:52:15;;;;;;;5.53;3.78;;;;;;;21.26;44.77;94757.41;4991408;28;20076;-62
2022/12/09 04:54:40;;;;;;;7.53;4.70;;;;;;;21.22;44.70;94767.78;4991400;28;20049;-63
2022/12/09 04:57:06;;;;;;;6.00;4.00;;;;;;;21.21;44.57;94766.31;4991170;28;20087;-63
2022/12/09 04:59:31;;;;;;;4.78;3.75;;;;;;;20.89;44.65;94733.88;5002660;28;20069;-63
2022/12/09 05:01:56;;;;;;;5.53;3.90;;;;;;;19.36;44.63;94571.53;5009768;28;20052;-63
2022/12/09 05:04:22;;;;;;;5.05;3.83;;;;;;;21.10;44.56;94755.47;4992151;28;21645;-63
2022/12/09 05:06:47;;;;;;;5.18;4.10;;;;;;;21.19;44.92;94774.19;5009010;28;21760;-63
2022/12/09 05:09:13;;;;;;;5.18;4.18;;;;;;;21.11;44.51;94767.84;5009752;28;20414;-65
2022/12/09 05:11:38;;;;;;;5.43;4.03;;;;;;;21.11;44.62;94756.25;5009577;28;20525;-64
2022/12/09 05:14:04;;;;;;;4.82;3.95;;;;;;;21.04;44.61;94743.91;5009141;28;20525;-62
2022/12/09 05:16:29;;;;;;;5.25;4.20;;;;;;;21.12;44.56;94763.13;5008947;28;20778;-62
2022/12/09 05:18:54;;;;;;;5.10;3.92;;;;;;;21.02;44.65;94743.69;5008518;28;21766;-64
2022/12/09 05:21:20;;;;;;;5.63;3.75;;;;;;;21.21;44.75;94769.03;5009318;28;20061;-62
2022/12/09 05:23:46;;;;;;;5.07;4.00;;;;;;;21.05;44.76;94737.25;5009106;28;20060;-62
2022/12/09 05:26:13;;;;;;;5.07;3.90;;;;;;;21.06;44.67;94744.16;4981913;28;20065;-64
2022/12/09 05:28:38;;;;;;;5.97;4.50;;;;;;;21.10;44.03;94774.50;5009062;28;20033;-62
2022/12/09 05:31:09;;;;;;;5.60;4.03;;;;;;;21.16;44.94;94764.34;5009476;28;20738;-61
2022/12/09 05:33:35;;;;;;;6.25;4.05;;;;;;;21.23;44.89;94780.13;4987334;28;20524;-62
2022/12/09 05:36:00;;;;;;;5.80;4.43;;;;;;;20.84;44.87;94693.94;4990643;28;20126;-62
2022/12/09 05:38:26;;;;;;;5.50;3.78;;;;;;;21.50;44.11;94782.00;5008615;28;20188;-63
2022/12/09 05:40:51;;;;;;;5.05;4.03;;;;;;;20.30;44.06;94592.53;5010918;28;20071;-62
2022/12/09 05:43:17;;;;;;;5.55;4.22;;;;;;;21.73;43.66;94794.22;5011385;28;21019;-63
2022/12/09 05:45:43;;;;;;;5.88;4.10;;;;;;;21.83;43.60;94784.53;4978337;28;20053;-62
2022/12/09 05:48:09;;;;;;;5.35;3.70;;;;;;;21.92;43.55;94796.53;5010727;28;20064;-62
2022/12/09 05:50:34;;;;;;;4.80;3.60;;;;;;;22.01;43.37;94798.22;5005335;28;20045;-63
2022/12/09 05:53:00;;;;;;;4.85;3.90;;;;;;;22.11;42.95;94786.53;5009419;28;20635;-62
2022/12/09 05:55:25;;;;;;;5.60;3.80;;;;;;;21.88;42.96;94740.25;4992231;28;20052;-63
2022/12/09 05:57:51;;;;;;;5.63;4.18;;;;;;;22.23;42.87;94796.13;5007203;28;20049;-62
2022/12/09 06:00:16;;;;;;;4.72;3.67;;;;;;;21.69;42.86;94707.53;5005489;28;20132;-62
2022/12/09 06:02:42;;;;;;;4.53;3.72;;;;;;;21.46;42.63;94656.56;5009075;28;20208;-63
2022/12/09 06:05:08;;;;;;;4.88;3.58;;;;;;;22.34;42.37;94768.09;4995579;28;20725;-62
2022/12/09 06:07:34;;;;;;;4.68;3.50;;;;;;;22.26;42.45;94757.03;5008579;28;20132;-62
2022/12/09 06:09:59;;;;;;;4.72;3.50;;;;;;;22.36;42.37;94758.19;5010942;28;21720;-62
2022/12/09 06:12:25;;;;;;;4.60;3.67;;;;;;;22.78;42.22;94771.09;5008395;28;20049;-61
2022/12/09 06:14:51;;;;;;;5.50;4.38;;;;;;;22.62;41.62;94774.75;5007809;28;20558;-60
2022/12/09 06:17:16;;;;;;;6.03;4.20;;;;;;;22.74;41.25;94782.28;5002535;28;21892;-60
2022/12/09 06:19:42;;;;;;;5.18;3.90;;;;;;;22.19;41.42;94716.00;5010437;28;20231;-60
2022/12/09 06:22:07;;;;;;;5.78;3.78;;;;;;;22.75;41.35;94789.22;5008407;28;20155;-60
2022/12/09 06:24:33;;;;;;;4.80;3.75;;;;;;;23.02;41.58;94796.38;5008623;28;20536;-61
2022/12/09 06:26:59;;;;;;;4.85;3.80;;;;;;;23.14;41.44;94793.03;5009632;28;20045;-61
2022/12/09 06:29:24;;;;;;;5.60;3.97;;;;;;;23.02;41.24;94764.44;4991034;28;20097;-61
2022/12/09 06:31:50;;;;;;;4.97;3.78;;;;;;;23.27;40.61;94790.38;4991559;28;20503;-61
2022/12/09 06:34:15;;;;;;;5.30;3.80;;;;;;;23.40;40.53;94815.00;5011433;28;20033;-61
2022/12/09 06:36:41;;;;;;;6.53;3.75;;;;;;;23.45;40.60;94806.75;5004932;28;20131;-61
2022/12/09 06:39:06;;;;;;;5.07;3.80;;;;;;;23.53;40.59;94823.28;5010444;28;20057;-61
2022/12/09 06:41:32;;;;;;;5.35;3.55;;;;;;;23.40;40.53;94809.53;5011424;28;20073;-61
2022/12/09 06:43:58;;;;;;;6.15;3.80;;;;;;;23.42;40.75;94796.13;5003179;28;20053;-61
2022/12/09 06:46:23;;;;;;;4.88;3.72;;;;;;;23.21;41.00;94797.88;5010267;28;20037;-61
2022/12/09 06:48:49;;;;;;;5.55;3.58;;;;;;;23.32;40.88;94825.00;4991059;28;20045;-62
2022/12/09 06:51:15;;;;;;;5.57;4.00;;;;;;;23.23;40.94;94811.75;5008683;28;21529;-61
2022/12/09 06:53:40;;;;;;;4.43;3.50;;;;;;;22.93;40.40;94734.84;5008254;28;20064;-61
2022/12/09 06:56:07;;;;;;;4.82;3.45;;;;;;;23.49;40.55;94820.09;4997915;28;20098;-61
2022/12/09 06:58:33;;;;;;;4.78;4.10;;;;;;;23.75;40.15;94833.91;4997520;28;21264;-62
2022/12/09 07:01:12;;;;;;;4.85;4.00;;;;;;;23.83;40.03;94840.25;5010448;28;20049;-63
2022/12/09 07:03:43;;;;;;;5.50;3.60;;;;;;;23.80;40.23;94798.41;5012477;28;20148;-62
2022/12/09 07:06:24;;;;;;;4.10;3.28;;;;;;;24.11;39.72;94792.97;5011893;28;20055;-62
2022/12/09 07:08:49;;;;;;;5.13;3.45;;;;;;;24.24;39.31;94812.09;5000344;28;20045;-64
2022/12/09 07:11:15;;;;;;;3.95;3.40;;;;;;;24.10;40.06;94816.06;5013908;28;20963;-61
2022/12/09 07:13:40;;;;;;;5.10;3.33;;;;;;;24.13;39.64;94814.28;5015597;28;20143;-62
2022/12/09 07:16:06;;;;;;;4.65;3.55;;;;;;;24.22;39.79;94817.34;4996788;28;20171;-61
2022/12/09 07:18:31;;;;;;;5.22;3.53;;;;;;;24.07;39.68;94797.25;5000478;28;20083;-61
2022/12/09 07:20:57;;;;;;;4.50;3.45;;;;;;;24.11;40.08;94812.06;5016389;28;20526;-62
2022/12/09 07:23:23;;;;;;;4.18;3.22;;;;;;;24.32;39.69;94814.97;5017921;28;20055;-67
2022/12/09 07:25:57;;;;;;;5.00;3.58;;;;;;;23.46;39.44;94710.09;4995821;28;20142;-61
2022/12/09 07:28:23;;;;;;;4.10;3.45;;;;;;;24.17;40.12;94820.91;5010045;28;20043;-62
2022/12/09 07:30:48;;;;;;;4.45;3.45;;;;;;;24.10;40.39;94823.50;4990181;28;20187;-60
2022/12/09 07:33:13;;;;;;;5.13;3.25;;;;;;;23.86;40.03;94745.25;5008570;28;20084;-66
2022/12/09 07:35:39;;;;;;;5.03;3.70;;;;;;;24.57;39.55;94825.25;4991323;28;20485;-64
2022/12/09 07:38:04;;;;;;;4.68;3.75;;;;;;;24.64;39.94;94819.19;4990008;28;20455;-64
2022/12/09 07:40:30;;;;;;;4.30;3.47;;;;;;;24.17;39.50;94749.97;5008218;28;20041;-63
2022/12/09 07:42:55;;;;;;;4.30;3.42;;;;;;;24.55;39.55;94816.88;5008799;28;20076;-64
2022/12/09 07:45:21;;;;;;;4.38;3.13;;;;;;;24.47;39.28;94835.84;4966133;28;21799;-64
2022/12/09 07:47:46;;;;;;;5.53;3.40;;;;;;;24.44;39.61;94823.25;4986516;28;20159;-63
2022/12/09 07:50:12;;;;;;;4.53;3.35;;;;;;;24.46;39.63;94825.44;5005441;28;20103;-64
2022/12/09 07:52:37;;;;;;;4.13;3.42;;;;;;;24.40;40.00;94803.69;5006842;28;20041;-66
2022/12/09 07:55:03;;;;;;;4.35;3.45;;;;;;;24.36;39.61;94816.94;5009312;28;20045;-63
2022/12/09 07:57:28;;;;;;;4.53;3.58;;;;;;;24.23;39.88;94796.25;4990009;28;20126;-69
2022/12/09 07:59:55;;;;;;;4.43;3.22;;;;;;;24.19;40.24;94804.75;4983673;28;20056;-65
2022/12/09 08:02:21;;;;;;;3.72;3.25;;;;;;;24.29;40.04;94805.84;5018661;28;20813;-67
2022/12/09 08:04:46;;;;;;;3.97;3.30;;;;;;;24.29;40.05;94846.03;4998774;28;20051;-63
2022/12/09 08:07:12;;;;;;;4.55;3.50;;;;;;;24.10;40.26;94796.94;5018199;28;20040;-64
2022/12/09 08:09:37;;;;;;;5.07;3.50;;;;;;;24.23;39.71;94791.56;5013153;28;20061;-64
2022/12/09 08:12:03;;;;;;;3.65;3.22;;;;;;;24.14;40.41;94816.50;5004670;28;20064;-64
2022/12/09 08:14:29;;;;;;;5.13;3.72;;;;;;;24.15;40.13;94811.75;5015033;28;20059;-64
2022/12/09 08:16:54;;;;;;;4.97;3.53;;;;;;;23.91;40.54;94781.88;5016402;28;20045;-64
2022/12/09 08:19:20;;;;;;;4.70;3.60;;;;;;;24.11;39.94;94823.00;5015218;28;20439;-62
2022/12/09 08:21:45;;;;;;;4.45;3.50;;;;;;;24.03;40.42;94843.91;4979610;28;21736;-62
2022/12/09 08:24:11;;;;;;;4.53;3.75;;;;;;;23.94;40.64;94836.09;5005713;28;21593;-62
2022/12/09 08:26:38;;;;;;;5.60;3.83;;;;;;;23.90;40.11;94824.78;5005926;28;20061;-62
2022/12/09 08:29:11;;;;;;;5.68;4.05;;;;;;;23.99;40.04;94838.03;4996274;28;20125;-63
2022/12/09 08:31:37;;;;;;;4.82;3.80;;;;;;;23.99;40.40;94832.59;4991314;28;20140;-63
2022/12/09 08:34:03;;;;;;;5.35;3.95;;;;;;;23.95;40.13;94826.69;4992051;28;20040;-64
2022/12/09 08:36:29;;;;;;;5.07;3.80;;;;;;;23.91;40.33;94818.06;5001193;28;20099;-65
2022/12/09 08:38:56;;;;;;;5.65;4.05;;;;;;;23.93;40.41;94823.75;4990763;28;20134;-62
2022/12/09 08:41:35;;;;;;;5.70;4.03;;;;;;;23.86;40.48;94811.97;4989621;28;20195;-63
2022/12/09 08:44:15;;;;;;;5.10;3.65;;;;;;;23.75;40.45;94779.38;5007201;28;20057;-63
2022/12/09 08:46:45;;;;;;;6.60;4.03;;;;;;;23.89;40.21;94811.66;5009063;28;20723;-64
2022/12/09 08:49:11;;;;;;;5.07;4.22;;;;;;;23.86;40.48;94805.25;4990144;28;20037;-63
2022/12/09 08:51:37;;;;;;;5.78;4.45;;;;;;;23.86;40.45;94817.41;5001213;28;20107;-63
2022/12/09 08:54:03;;;;;;;5.85;3.67;;;;;;;23.77;40.40;94782.34;5007784;28;20794;-64
2022/12/09 08:56:28;;;;;;;5.85;4.00;;;;;;;23.84;39.91;94781.72;5005771;28;20079;-64
2022/12/09 08:58:54;;;;;;;6.15;4.45;;;;;;;23.66;40.66;94744.31;4994418;28;23009;-64
2022/12/09 09:01:21;;;;;;;5.00;4.00;;;;;;;23.83;40.46;94763.91;5005874;28;20406;-64
2022/12/09 09:03:47;;;;;;;6.82;4.22;;;;;;;23.84;40.03;94770.81;5004657;28;20300;-66
2022/12/09 09:06:13;;;;;;;5.43;4.40;;;;;;;23.79;40.18;94749.81;4988244;28;20057;-63
2022/12/09 09:08:38;;;;;;;6.10;4.50;;;;;;;23.84;40.58;94757.19;5006690;28;20045;-63
2022/12/09 09:11:24;;;;;;;4.95;4.10;;;;;;;23.82;40.57;94751.53;5005012;28;20060;-62
2022/12/09 09:13:50;;;;;;;5.53;3.95;;;;;;;23.73;40.08;94727.34;5005848;28;20859;-64
2022/12/09 09:16:25;;;;;;;5.05;3.97;;;;;;;23.67;40.34;94729.44;4967098;28;20171;-64
2022/12/09 09:18:51;;;;;;;6.10;4.18;;;;;;;23.79;40.56;94741.66;5005167;28;20064;-63
2022/12/09 09:21:18;;;;;;;5.20;4.13;;;;;;;23.60;40.28;94710.91;5004033;28;20056;-64
2022/12/09 09:23:43;;;;;;;5.75;3.83;;;;;;;23.77;40.55;94744.16;5005027;28;20094;-64
2022/12/09 09:26:14;;;;;;;5.25;3.95;;;;;;;23.78;40.52;94745.63;4986513;28;20064;-65
2022/12/09 09:28:39;;;;;;;5.60;3.90;;;;;;;23.60;40.33;94719.09;4982514;28;20033;-62
2022/12/09 09:31:06;;;;;;;5.05;4.10;;;;;;;23.77;40.33;94738.72;5009190;28;20036;-62
2022/12/09 09:33:31;;;;;;;6.82;4.38;;;;;;;23.79;40.49;94719.84;5006482;28;20061;-63
2022/12/09 09:35:58;;;;;;;4.88;4.00;;;;;;;23.61;40.49;94693.31;5007951;28;21258;-62
2022/12/09 09:38:24;;;;;;;6.25;4.40;;;;;;;23.27;40.52;94640.53;5003003;28;20182;-63
2022/12/09 09:40:50;;;;;;;5.97;3.97;;;;;;;23.75;40.77;94713.94;4989234;28;20029;-61
2022/12/09 09:43:17;;;;;;;6.07;4.35;;;;;;;21.99;40.99;94437.13;4992828;28;20037;-62
2022/12/09 09:45:42;;;;;;;5.38;4.40;;;;;;;23.79;41.09;94703.47;4998725;28;20987;-62
2022/12/09 09:48:08;;;;;;;6.85;4.78;;;;;;;23.76;41.18;94693.59;4998318;28;21414;-67
2022/12/09 09:50:52;;;;;;;4.90;3.72;;;;;;;23.84;40.99;94694.47;4991936;28;20048;-66
2022/12/09 09:53:24;;;;;;;6.90;4.05;;;;;;;23.82;40.95;94696.97;5006944;28;20076;-63
2022/12/09 09:56:01;;;;;;;7.05;3.92;;;;;;;23.82;41.22;94697.72;4991163;28;20068;-63
2022/12/09 09:59:05;;;;;;;6.10;4.00;;;;;;;23.91;41.27;94689.88;4993104;28;20036;-63
2022/12/09 10:01:32;;;;;;;5.88;4.15;;;;;;;23.20;41.31;94556.69;5011758;28;20083;-63
2022/12/09 10:04:37;;;;;;;6.85;3.78;;;;;;;23.99;41.04;94662.72;5006693;28;20090;-65
2022/12/09 10:07:15;;;;;;;5.13;3.88;;;;;;;23.86;41.33;94643.59;5011012;28;20465;-63
2022/12/09 10:09:53;;;;;;;6.03;4.15;;;;;;;22.75;41.36;94451.69;4978211;28;20053;-63
2022/12/09 10:12:25;;;;;;;6.53;4.28;;;;;;;24.14;41.08;94641.13;5013552;28;20191;-64
2022/12/09 10:15:06;;;;;;;5.32;4.10;;;;;;;23.63;40.91;94559.94;5015311;28;20049;-63
2022/12/09 10:17:41;;;;;;;5.75;4.25;;;;;;;24.25;40.72;94652.59;5003328;28;20062;-63
2022/12/09 10:20:12;;;;;;;4.70;3.83;;;;;;;24.28;40.37;94646.09;4975616;28;20052;-63
2022/12/09 10:22:48;;;;;;;5.53;4.22;;;;;;;24.25;40.64;94641.69;4994113;28;20693;-64
2022/12/09 10:25:47;;;;;;;5.85;3.90;;;;;;;24.36;40.81;94630.56;4992780;28;20047;-64
2022/12/09 10:28:19;;;;;;;5.25;4.07;;;;;;;24.41;40.15;94632.47;4977556;28;20065;-63
2022/12/09 10:30:45;;;;;;;6.25;3.90;;;;;;;24.48;40.41;94626.38;5010085;28;20052;-63
2022/12/09 10:33:14;;;;;;;6.30;4.25;;;;;;;24.52;39.87;94615.88;5010120;28;20132;-63
2022/12/09 10:35:39;;;;;;;6.07;4.17;;;;;;;24.59;40.46;94620.72;5004234;28;20049;-62
2022/12/09 10:38:10;;;;;;;5.68;4.05;;;;;;;24.38;40.19;94595.31;4990573;28;20063;-64
2022/12/09 10:43:33;;;;;;;6.15;4.05;;;;;;;24.66;39.90;94598.22;4989985;28;20037;-65
2022/12/09 10:44:22;;;;;;;5.85;4.40;;;;;;;23.96;39.45;94481.78;4973351;28;21693;-63
2022/12/09 10:46:48;;;;;;;5.72;4.00;;;;;;;24.78;39.36;94599.47;5009659;28;20115;-63
2022/12/09 10:49:19;;;;;;;6.07;4.30;;;;;;;24.34;39.80;94532.13;5009163;28;20664;-62
2022/12/09 10:51:48;;;;;;;5.45;4.25;;;;;;;24.77;39.32;94587.06;4993453;28;20041;-63
2022/12/09 10:54:26;;;;;;;5.50;4.25;;;;;;;24.97;39.35;94601.50;4985933;28;20053;-64
2022/12/09 10:57:10;;;;;;;6.70;4.35;;;;;;;24.87;39.69;94586.84;5008779;28;20179;-63
2022/12/09 10:59:36;;;;;;;6.72;4.25;;;;;;;24.64;39.09;94527.03;5008255;28;21698;-63
2022/12/09 11:02:04;;;;;;;7.03;4.35;;;;;;;24.97;39.34;94600.78;4980313;28;20068;-64
2022/12/09 11:04:34;;;;;;;6.75;4.20;;;;;;;25.01;39.21;94599.22;5007670;28;20041;-65
2022/12/09 11:07:13;;;;;;;7.65;4.30;;;;;;;25.12;38.92;94601.72;5007310;28;20054;-66
2022/12/09 11:09:42;;;;;;;6.10;4.22;;;;;;;25.22;38.92;94580.88;5008669;28;20060;-64
2022/12/09 11:12:18;;;;;;;6.72;4.30;;;;;;;25.08;38.86;94574.00;5008281;28;20085;-64
2022/12/09 11:15:03;;;;;;;6.70;4.35;;;;;;;25.19;38.63;94586.69;5007897;28;20698;-64
2022/12/09 11:17:39;;;;;;;6.28;4.40;;;;;;;25.03;38.82;94595.97;4989925;28;20060;-65
2022/12/09 11:20:04;;;;;;;7.40;4.68;;;;;;;24.51;38.72;94495.03;4981968;28;20053;-63
2022/12/09 11:22:40;;;;;;;8.02;4.68;;;;;;;25.30;38.63;94578.94;5009683;28;20420;-64
2022/12/09 11:25:12;;;;;;;6.57;4.40;;;;;;;25.42;38.17;94574.69;5009722;28;20142;-66
2022/12/09 11:27:46;;;;;;;5.90;4.82;;;;;;;25.35;38.27;94558.94;5007971;28;20076;-64
2022/12/09 11:30:18;;;;;;;7.22;4.78;;;;;;;24.78;38.07;94471.09;5007900;28;20551;-63
2022/12/09 11:32:56;;;;;;;6.47;4.40;;;;;;;25.42;38.29;94555.53;5009246;28;20063;-62
2022/12/09 11:35:43;;;;;;;5.88;4.50;;;;;;;24.90;37.77;94470.31;5007628;28;20837;-63
2022/12/09 11:38:29;;;;;;;6.32;4.20;;;;;;;25.59;38.18;94577.75;4997809;28;20588;-65
2022/12/09 11:41:10;;;;;;;6.20;4.50;;;;;;;25.62;37.97;94549.34;5001758;28;20057;-65